METAR Data
IDs: Format: Raw Decoded Include TAF

Data at: 0900 UTC 23 Jan 2019

KIKG 230855Z AUTO 34021G27KT 10SM -RA OVC030 10/10 A2999 RMK AO2 6//// T01020100
KIKG 230835Z AUTO 33017G31KT 10SM -RA SCT010 BKN018 OVC026 11/10 A2999 RMK AO2 T01070104
KIKG 230815Z AUTO 34019G28KT 7SM -RA 12/12 A2997 RMK AO2 T01220122
KIKG 230755Z AUTO 35018G25KT 10SM OVC010 15/15 A2996 RMK AO2 T01530152
KIKG 230735Z AUTO 34019G27KT 10SM -DZ BKN010 OVC017 17/17 A2995 RMK AO2 T01650165
KIKG 230715Z AUTO 34016G22KT 7SM -RA SCT008 OVC019 18/18 A2991 RMK AO2 T01830183
KIKG 230655Z AUTO 33006KT 7SM -RA SCT019 BKN033 OVC044 19/19 A2990 RMK AO2 T01930193
KIKG 230635Z AUTO 00000KT 7SM SCT034 BKN043 OVC050 19/19 A2991 RMK AO2 T01930193
KIKG 230615Z AUTO 00000KT 5SM -RA BKN022 BKN035 OVC043 20/19 A2989 RMK AO2 T02020190
KIKG 230555Z AUTO 00000KT 7SM OVC024 20/19 A2987 RMK AO2 T02010187 10240 20201 402830150
KIKG 230535Z AUTO 00000KT 10SM OVC024 20/19 A2986 RMK AO2 T02010185
KIKG 230515Z AUTO 01003KT 10SM OVC026 21/19 A2986 RMK AO2 T02050185
KIKG 230455Z AUTO 00000KT 10SM OVC026 21/19 A2987 RMK AO2 T02080185
KIKG 230435Z AUTO 11003KT 10SM OVC026 21/19 A2984 RMK AO2 T02090185
KIKG 230415Z AUTO 00000KT 10SM OVC024 22/19 A2986 RMK AO2 T02150185
KIKG 230355Z AUTO 22003KT 10SM OVC026 22/19 A2986 RMK AO2 T02160185
KIKG 230335Z AUTO 18005KT 10SM OVC026 22/18 A2984 RMK AO2 T02170183
KIKG 230315Z AUTO 17007KT 10SM BKN028 22/18 A2982 RMK AO2 T02170180
KIKG 230255Z AUTO 13008KT 10SM SCT028 22/18 A2978 RMK AO2 T02170176
KIKG 230235Z AUTO 14010KT 10SM CLR 22/18 A2977 RMK AO2 T02200177
KIKG 230215Z AUTO 14010G16KT 10SM CLR 22/18 A2977 RMK AO2 T02230175
KIKG 230155Z AUTO 15007KT 10SM CLR 23/17 A2978 RMK AO2 T02250172
KIKG 230135Z AUTO 16006KT 10SM CLR 23/17 A2978 RMK AO2 T02260170
KIKG 230115Z AUTO 15006KT 7SM CLR 23/17 A2977 RMK AO2 T02290167
KIKG 230055Z AUTO 15012G17KT 7SM CLR 23/17 A2975 RMK AO2 T02320167
KIKG 230035Z AUTO 16014G21KT 10SM CLR 24/17 A2973 RMK AO2 T02350170
KIKG 230015Z AUTO 15012G18KT 10SM SCT030 24/17 A2971 RMK AO2 T02360171
KIKG 222355Z AUTO 15012G19KT 10SM CLR 24/17 A2970 RMK AO2 T02400170 10283 20240
KIKG 222335Z AUTO 14014G18KT 10SM CLR 25/17 A2969 RMK AO2 T02470170
KIKG 222315Z AUTO 14012KT 10SM SCT036 26/17 A2969 RMK AO2 T02550165
KIKG 222255Z AUTO 15012G19KT 10SM SCT036 SCT041 27/16 A2969 RMK AO2 T02670164
KIKG 222235Z AUTO 15013G21KT 7SM BKN036 BKN043 27/16 A2969 RMK AO2 T02650160
KIKG 222215Z AUTO 17014G24KT 7SM BKN036 27/16 A2969 RMK AO2 T02710160
KIKG 222155Z AUTO 16013G22KT 10SM SCT038 28/16 A2969 RMK AO2 T02750161
KIKG 222135Z AUTO 15014G24KT 10SM SCT038 28/16 A2969 RMK AO2 T02750159
KIKG 222115Z AUTO 14017G21KT 10SM CLR 28/16 A2968 RMK AO2 T02770159
KIKG 222055Z AUTO 15016G24KT 10SM CLR 28/16 A2970 RMK AO2 T02760157
KIKG 222035Z AUTO 16018G25KT 10SM CLR 28/16 A2970 RMK AO2 T02760160
KIKG 222015Z AUTO 14014G27KT 10SM SCT036 28/16 A2970 RMK AO2 T02750159
KIKG 221955Z AUTO 14017G24KT 10SM SCT036 28/16 A2971 RMK AO2 T02750159
KIKG 221935Z AUTO 16013G23KT 10SM CLR 28/16 A2973 RMK AO2 T02750155
KIKG 221915Z AUTO 15017G25KT 10SM CLR 27/15 A2974 RMK AO2 T02720154
KIKG 221855Z AUTO 16018G26KT 10SM CLR 27/15 A2975 RMK AO2 T02710153
KIKG 221835Z AUTO 16018G29KT 10SM CLR 26/15 A2977 RMK AO2 T02630152
KIKG 221815Z AUTO 16020G27KT 10SM CLR 26/15 A2979 RMK AO2 T02570153
KIKG 221755Z AUTO 16019G27KT 10SM CLR 25/15 A2980 RMK AO2 T02540154 10254 20152
KIKG 221735Z AUTO 16019G28KT 10SM CLR 25/16 A2981 RMK AO2 T02470155
KIKG 221715Z AUTO 16022G26KT 10SM CLR 25/16 A2983 RMK AO2 T02460155
KIKG 221655Z AUTO 16021G34KT 10SM SCT035 24/16 A2983 RMK AO2 T02400155
KIKG 221635Z AUTO 16021G27KT 10SM SCT035 24/16 A2985 RMK AO2 T02360157
KIKG 221615Z AUTO 15019G30KT 10SM SCT031 23/16 A2984 RMK AO2 T02300159
KIKG 221555Z AUTO 16014G25KT 10SM SCT031 23/16 A2986 RMK AO2 T02270160
KIKG 221535Z AUTO 16022G31KT 10SM SCT031 22/16 A2985 RMK AO2 T02220160
KIKG 221515Z AUTO 16016G21KT 10SM SCT033 21/16 A2986 RMK AO2 T02100160
KIKG 221455Z AUTO 16012G17KT 10SM CLR 20/16 A2985 RMK AO2 T01970156
KIKG 221435Z AUTO 14009KT 10SM CLR 18/16 A2983 RMK AO2 T01830155
KIKG 221415Z AUTO 13007KT 10SM SCT035 17/15 A2983 RMK AO2 T01650150
KIKG 221355Z AUTO 13005KT 10SM BKN035 16/14 A2985 RMK AO2 T01550144
KIKG 221335Z AUTO 00000KT 10SM BKN035 16/14 A2986 RMK AO2 T01550142
KIKG 221315Z AUTO 16003KT 10SM CLR 16/15 A2985 RMK AO2 T01600145
KIKG 221255Z AUTO 14007KT 10SM CLR 16/15 A2983 RMK AO2 T01610146
KIKG 221235Z AUTO 14008KT 10SM CLR 16/15 A2983 RMK AO2 T01610146
KIKG 221215Z AUTO 15008KT 10SM CLR 16/15 A2983 RMK AO2 T01610146
KIKG 221155Z AUTO 14008KT 10SM CLR 16/15 A2983 RMK AO2 T01610146 10161 20150
KIKG 221135Z AUTO 14009KT 10SM CLR 16/15 A2983 RMK AO2 T01600145
KIKG 221115Z AUTO 14006KT 10SM CLR 16/14 A2985 RMK AO2 T01600144
KIKG 221055Z AUTO 14007KT 10SM CLR 16/14 A2985 RMK AO2 T01600143
KIKG 221035Z AUTO 14007KT 10SM CLR 16/14 A2986 RMK AO2 T01580142
KIKG 221015Z AUTO 14006KT 10SM CLR 16/14 A2987 RMK AO2 T01580142
KIKG 220955Z AUTO 14009KT 10SM CLR 16/14 A2987 RMK AO2 T01580141
KIKG 220935Z AUTO 14009KT 10SM CLR 16/14 A2988 RMK AO2 T01600141
KIKG 220915Z AUTO 14008KT 10SM CLR 16/14 A2989 RMK AO2 T01580141
KIKG 220855Z AUTO 14008KT 10SM CLR 16/14 A2990 RMK AO2 T01590140
KIKG 220835Z AUTO 14009KT 10SM CLR 16/14 A2991 RMK AO2 T01580141
KIKG 220815Z AUTO 14009KT 10SM CLR 16/14 A2991 RMK AO2 T01600141
KIKG 220755Z AUTO 14011G16KT 10SM CLR 16/14 A2992 RMK AO2 T01600142
KIKG 220735Z AUTO 14010G15KT 10SM CLR 16/14 A2993 RMK AO2 T01600143
KIKG 220715Z AUTO 14013G18KT 10SM CLR 16/14 A2993 RMK AO2 T01570142
KIKG 220655Z AUTO 13011KT 10SM CLR 16/14 A2993 RMK AO2 T01560144
KIKG 220635Z AUTO 13011G17KT 10SM CLR 16/15 A2994 RMK AO2 T01550145
KIKG 220615Z AUTO 13011KT 10SM CLR 15/15 A2996 RMK AO2 T01530145
KIKG 220555Z AUTO 13009KT 10SM CLR 15/14 A2997 RMK AO2 T01500143 10193 20150 402380010
KIKG 220535Z AUTO 13008KT 10SM CLR 15/14 A2998 RMK AO2 T01500142
KIKG 220515Z AUTO 13007KT 10SM CLR 15/14 A2998 RMK AO2 T01510143
KIKG 220455Z AUTO 13008KT 10SM CLR 15/14 A2998 RMK AO2 T01520143
KIKG 220435Z AUTO 13009KT 10SM CLR 15/14 A2999 RMK AO2 T01520142
KIKG 220415Z AUTO 12008KT 10SM CLR 15/14 A2999 RMK AO2 T01500141
KIKG 220355Z AUTO 12007KT 10SM CLR 15/14 A2999 RMK AO2 T01500140
KIKG 220335Z AUTO 12007KT 10SM CLR 15/14 A3000 RMK AO2 T01500140
KIKG 220315Z AUTO 12008KT 10SM SCT038 15/14 A3000 RMK AO2 T01540140
KIKG 220255Z AUTO 12007KT 10SM BKN038 16/14 A3001 RMK AO2 T01580140
KIKG 220235Z AUTO 12009KT 10SM BKN040 16/14 A3001 RMK AO2 T01610141
KIKG 220215Z AUTO 11008KT 10SM SCT040 16/14 A3001 RMK AO2 T01610140
KIKG 220155Z AUTO 11010KT 10SM CLR 16/14 A3001 RMK AO2 T01640140
KIKG 220135Z AUTO 12011KT 10SM CLR 17/14 A3000 RMK AO2 T01660141
KIKG 220115Z AUTO 11010KT 10SM CLR 17/14 A3000 RMK AO2 T01700140
KIKG 220055Z AUTO 11009KT 10SM CLR 17/14 A2999 RMK AO2 T01720138
KIKG 220035Z AUTO 12012G18KT 10SM CLR 18/14 A2999 RMK AO2 T01820135
KIKG 220015Z AUTO 11013G18KT 10SM CLR 19/14 A2999 RMK AO2 T01870135
KIKG 212355Z AUTO 12014G17KT 10SM CLR 19/14 A2999 RMK AO2 T01930135 10238 20193
KIKG 212335Z AUTO 10014G21KT 10SM CLR 20/14 A2999 RMK AO2 T02010136
KIKG 212315Z AUTO 12018G22KT 10SM CLR 21/14 A2999 RMK AO2 T02070137
KIKG 212255Z AUTO 11016G21KT 10SM CLR 22/14 A2999 RMK AO2 T02150140
KIKG 212235Z AUTO 12015G22KT 10SM CLR 22/14 A2999 RMK AO2 T02200141
KIKG 212215Z AUTO 11017G20KT 10SM CLR 23/14 A3000 RMK AO2 T02250141
KIKG 212155Z AUTO 12015G20KT 10SM CLR 23/14 A3000 RMK AO2 T02300137
KIKG 212135Z AUTO 12015KT 10SM CLR 23/14 A3001 RMK AO2 T02330138
KIKG 212115Z AUTO 11016G20KT 10SM CLR 23/14 A3002 RMK AO2 T02340135